首页
METAR-TAF:

METAR-TAF

机场 :

Vinton Veterans Memorial Airpark

Vinton, 艾奥瓦州, 美国

纬度: 42-13-07N, 经度: 092-01-33W, 海拔: 258米

当前天气观测

该预报发布于31分钟前的10:15 UTC
风速7节,风向东南
温度 20°C
湿度 94%
气压 1012 hPa
能見度: 16.1公里
天空无云

METAR: KVTI 261015Z AUTO 14007KT 10SM CLR 20/19 A2989 RMK AO2 T02020191

时间: 05:46 (10:46 UTC)


TAF: 丢失

超过4000个机场的气象观测和天气预报(METAR&TAF报告)。

可查询的气象台以黄色和红色小点在地图上表示。

将鼠标移到小点上方,可查看气象台名称。

然后点击查看天气观测和预报。

如需切换地图:点击带黑十字的绿色按钮放大地图;点击带横线的绿色按钮缩小地图;或者点击绿色箭头查看邻近地区的地图。


METAR-TAF: